Time;durP1;ratioP1;P1;durP2;ratioP2;P2;SDS_P1;SDS_P2;PMS_P1;PMS_P2;Temp;Humidity;BMP_temperature;BMP_pressure;BME280_temperature;BME280_humidity;BME280_pressure;Samples;Min_cycle;Max_cycle;Signal;HPM_P1;HPM_P2
2023/05/29 00:02:08;;;;;;;71.00;6.73;;;18.70;1.00;;;;;;4883298;29;20171;-81
2023/05/29 00:04:35;;;;;;;75.03;7.90;;;18.70;1.00;;;;;;4883610;29;20683;-81
2023/05/29 00:07:01;;;;;;;72.87;7.77;;;18.60;1.00;;;;;;4883384;29;20663;-81
2023/05/29 00:09:27;;;;;;;69.87;7.20;;;18.60;1.00;;;;;;4883468;29;20443;-81
2023/05/29 00:11:53;;;;;;;70.83;8.73;;;18.60;1.00;;;;;;4883939;29;20167;-81
2023/05/29 00:14:20;;;;;;;70.67;7.47;;;18.50;1.00;;;;;;4884327;29;20463;-81
2023/05/29 00:16:46;;;;;;;73.50;9.47;;;18.40;1.00;;;;;;4883086;29;20187;-81
2023/05/29 00:19:13;;;;;;;75.87;9.57;;;18.40;1.00;;;;;;4881831;29;20427;-81
2023/05/29 00:21:40;;;;;;;71.70;8.30;;;18.50;1.00;;;;;;4883080;29;20475;-81
2023/05/29 00:24:06;;;;;;;69.20;8.20;;;18.40;1.00;;;;;;4883351;29;20412;-81
2023/05/29 00:26:31;;;;;;;74.07;7.53;;;18.40;1.00;;;;;;4882834;29;20438;-81
2023/05/29 00:28:57;;;;;;;74.80;9.07;;;18.40;1.00;;;;;;4884123;29;20238;-80
2023/05/29 00:31:24;;;;;;;72.50;8.43;;;18.20;1.00;;;;;;4881930;29;20269;-80
2023/05/29 00:33:50;;;;;;;72.43;7.73;;;18.10;1.00;;;;;;4882262;29;20707;-81
2023/05/29 00:36:16;;;;;;;69.23;7.20;;;18.10;1.00;;;;;;4883459;29;20435;-81
2023/05/29 00:38:41;;;;;;;72.00;7.77;;;18.00;1.00;;;;;;4882211;29;20185;-81
2023/05/29 00:41:08;;;;;;;74.10;8.63;;;18.00;1.00;;;;;;4883411;29;20503;-81
2023/05/29 00:43:34;;;;;;;72.23;7.60;;;17.90;1.00;;;;;;4883479;29;20181;-81
2023/05/29 00:46:00;;;;;;;71.87;8.17;;;17.80;1.00;;;;;;4882804;29;20423;-80
2023/05/29 00:48:26;;;;;;;73.27;7.57;;;17.80;1.00;;;;;;4882107;29;20430;-81
2023/05/29 00:50:52;;;;;;;71.50;7.13;;;17.80;1.00;;;;;;4867017;29;20411;-81
2023/05/29 00:53:17;;;;;;;74.63;7.60;;;17.80;1.00;;;;;;4883276;29;20411;-81
2023/05/29 00:55:44;;;;;;;73.80;7.97;;;17.90;1.00;;;;;;4882991;29;20215;-81
2023/05/29 00:58:10;;;;;;;69.80;8.27;;;17.80;1.00;;;;;;4882898;29;20171;-81
2023/05/29 01:00:35;;;;;;;72.00;8.10;;;17.60;1.00;;;;;;4881796;29;20426;-81
2023/05/29 01:03:04;;;;;;;70.63;7.47;;;17.50;1.00;;;;;;4883320;29;20194;-80
2023/05/29 01:05:35;;;;;;;72.90;8.83;;;17.30;4.10;;;;;;4881736;29;20494;-81
2023/05/29 01:08:02;;;;;;;71.27;7.50;;;17.30;3.10;;;;;;4883455;29;20935;-81
2023/05/29 01:10:28;;;;;;;76.60;9.50;;;17.30;4.20;;;;;;4882529;29;20496;-81
2023/05/29 01:13:24;;;;;;;73.30;9.47;;;17.30;3.40;;;;;;4883003;29;20403;-81
2023/05/29 01:16:04;;;;;;;74.87;8.57;;;17.20;5.40;;;;;;4883292;29;20396;-80
2023/05/29 01:18:34;;;;;;;69.17;7.57;;;17.00;9.80;;;;;;4883676;29;20402;-81
2023/05/29 01:21:39;;;;;;;73.07;7.90;;;17.00;6.90;;;;;;4883256;29;20403;-81
2023/05/29 01:24:13;;;;;;;71.00;7.83;;;17.00;6.80;;;;;;4881674;29;20497;-81
2023/05/29 01:26:54;;;;;;;69.77;8.97;;;16.90;7.40;;;;;;4883132;29;20451;-81
2023/05/29 01:29:23;;;;;;;73.77;9.20;;;16.90;5.80;;;;;;4882704;29;20503;-81
2023/05/29 01:31:51;;;;;;;68.00;7.90;;;16.80;5.40;;;;;;4882641;29;20422;-81
2023/05/29 01:34:20;;;;;;;69.17;7.50;;;16.70;4.10;;;;;;4885743;29;20824;-81
2023/05/29 01:36:48;;;;;;;72.23;9.20;;;16.80;3.40;;;;;;4885301;29;20490;-81
2023/05/29 01:39:14;;;;;;;69.10;9.90;;;16.80;1.70;;;;;;4886145;29;20411;-81
2023/05/29 01:41:40;;;;;;;71.77;9.97;;;16.60;3.50;;;;;;4885769;29;20422;-81
2023/05/29 01:44:11;;;;;;;70.27;11.00;;;16.60;4.50;;;;;;4886117;29;20412;-81
2023/05/29 01:46:38;;;;;;;71.37;9.70;;;16.50;5.30;;;;;;4884704;29;20459;-81
2023/05/29 01:49:05;;;;;;;69.27;10.27;;;16.40;5.80;;;;;;4885233;29;20463;-81
2023/05/29 01:51:31;;;;;;;71.50;9.70;;;16.30;5.20;;;;;;4883547;29;20426;-81
2023/05/29 01:53:58;;;;;;;72.00;10.70;;;16.20;5.90;;;;;;4883907;29;20411;-81
2023/05/29 01:56:26;;;;;;;73.43;9.57;;;16.20;6.50;;;;;;4884560;29;20430;-80
2023/05/29 01:58:54;;;;;;;68.37;9.87;;;16.20;6.00;;;;;;4883944;29;21010;-81
2023/05/29 02:01:21;;;;;;;70.57;10.00;;;16.10;5.50;;;;;;4884678;29;20909;-81
2023/05/29 02:03:46;;;;;;;70.87;10.67;;;16.20;1.00;;;;;;4884126;29;20416;-81
2023/05/29 02:06:15;;;;;;;69.23;9.03;;;16.10;1.00;;;;;;4883252;29;20856;-80
2023/05/29 02:08:41;;;;;;;69.70;12.03;;;16.10;1.00;;;;;;4884802;29;20269;-81
2023/05/29 02:11:06;;;;;;;69.20;10.00;;;16.10;1.00;;;;;;4884314;29;20465;-81
2023/05/29 02:13:32;;;;;;;70.80;12.47;;;15.90;1.90;;;;;;4884218;29;20167;-81
2023/05/29 02:15:58;;;;;;;70.67;11.50;;;15.90;1.00;;;;;;4884388;29;20173;-81
2023/05/29 02:18:24;;;;;;;70.70;10.13;;;16.00;1.00;;;;;;4884793;29;20170;-81
2023/05/29 02:20:49;;;;;;;75.17;12.53;;;15.90;1.00;;;;;;4884988;29;20177;-81
2023/05/29 02:23:15;;;;;;;70.43;10.37;;;15.80;1.00;;;;;;4883796;29;20474;-81
2023/05/29 02:25:41;;;;;;;72.70;11.80;;;15.90;1.00;;;;;;4884553;29;20165;-81
2023/05/29 02:28:07;;;;;;;68.87;12.40;;;15.80;1.00;;;;;;4884160;29;20194;-81
2023/05/29 02:30:34;;;;;;;70.10;12.07;;;15.70;1.00;;;;;;4883134;29;20450;-81
2023/05/29 02:33:00;;;;;;;71.90;10.60;;;15.70;1.00;;;;;;4884413;29;20167;-81
2023/05/29 02:35:26;;;;;;;75.60;11.47;;;15.60;1.50;;;;;;4882948;29;20422;-81
2023/05/29 02:37:52;;;;;;;70.17;12.90;;;15.60;4.90;;;;;;4883233;29;20192;-81
2023/05/29 02:40:19;;;;;;;72.83;11.23;;;15.60;3.90;;;;;;4883503;29;20257;-81
2023/05/29 02:42:45;;;;;;;71.00;11.00;;;15.60;2.20;;;;;;4883966;29;20430;-81
2023/05/29 02:45:10;;;;;;;77.20;12.00;;;15.50;1.50;;;;;;4884455;29;20496;-81
2023/05/29 02:47:37;;;;;;;69.33;10.70;;;15.40;6.50;;;;;;4845774;29;1163775;-81
2023/05/29 02:50:04;;;;;;;71.50;10.50;;;15.40;4.20;;;;;;4885223;29;20225;-81
2023/05/29 02:52:30;;;;;;;70.07;10.37;;;15.40;7.20;;;;;;4884120;29;20418;-81
2023/05/29 02:54:56;;;;;;;71.17;10.23;;;15.30;6.70;;;;;;4884989;29;20912;-81
2023/05/29 02:57:22;;;;;;;68.50;9.10;;;15.40;6.30;;;;;;4883521;29;20480;-81
2023/05/29 02:59:48;;;;;;;70.13;9.90;;;15.30;6.40;;;;;;4885278;29;20423;-81
2023/05/29 03:02:15;;;;;;;74.03;10.10;;;15.30;7.30;;;;;;4883459;29;20936;-81
2023/05/29 03:04:41;;;;;;;72.90;9.77;;;15.10;10.10;;;;;;4883539;29;20442;-81
2023/05/29 03:07:09;;;;;;;70.17;8.97;;;15.10;14.80;;;;;;4883682;29;20504;-81
2023/05/29 03:09:35;;;;;;;68.70;8.20;;;15.20;12.00;;;;;;4883779;29;20203;-81
2023/05/29 03:12:04;;;;;;;70.60;8.20;;;15.20;11.10;;;;;;4885035;29;20763;-81
2023/05/29 03:14:30;;;;;;;69.73;8.10;;;15.10;13.80;;;;;;4883385;29;20460;-81
2023/05/29 03:16:56;;;;;;;68.87;7.73;;;15.00;14.90;;;;;;4884756;29;20423;-81
2023/05/29 03:19:21;;;;;;;69.90;8.80;;;15.00;16.70;;;;;;4883088;29;20428;-81
2023/05/29 03:21:47;;;;;;;70.47;7.90;;;15.00;14.80;;;;;;4884584;29;20485;-81
2023/05/29 03:24:16;;;;;;;67.67;7.93;;;15.10;13.10;;;;;;4884367;29;20207;-81
2023/05/29 03:26:42;;;;;;;67.17;6.20;;;15.00;16.10;;;;;;4884685;29;20223;-81
2023/05/29 03:29:07;;;;;;;67.60;7.00;;;14.90;19.80;;;;;;4884363;29;20473;-81
2023/05/29 03:31:33;;;;;;;73.60;6.27;;;14.90;21.40;;;;;;4883414;29;20905;-81
2023/05/29 03:33:59;;;;;;;67.27;6.77;;;14.80;23.00;;;;;;4883012;29;20473;-81
2023/05/29 03:36:25;;;;;;;70.80;6.77;;;14.80;25.40;;;;;;4884446;29;20192;-81
2023/05/29 03:38:51;;;;;;;69.40;7.10;;;14.80;24.90;;;;;;4883112;29;20441;-81
2023/05/29 03:41:16;;;;;;;75.80;7.40;;;14.70;26.80;;;;;;4884220;29;20177;-81
2023/05/29 03:43:42;;;;;;;72.77;6.50;;;14.70;26.40;;;;;;4948664;23;21261;-85
2023/05/29 03:46:08;;;;;;;69.07;5.67;;;14.70;25.70;;;;;;4881532;29;20196;-82
2023/05/29 03:48:34;;;;;;;70.10;7.17;;;14.70;27.70;;;;;;4881425;29;20639;-83
2023/05/29 03:50:59;;;;;;;68.07;6.47;;;14.60;30.70;;;;;;4881315;29;20167;-82
2023/05/29 03:53:25;;;;;;;70.20;5.20;;;14.60;28.80;;;;;;4881295;29;20655;-82
2023/05/29 03:55:50;;;;;;;69.33;5.67;;;14.70;29.90;;;;;;4879484;29;20259;-83
2023/05/29 03:58:16;;;;;;;68.47;5.70;;;14.70;29.60;;;;;;4881271;29;20256;-83
2023/05/29 04:00:49;;;;;;;69.90;5.87;;;14.70;28.70;;;;;;4881941;29;20230;-83
2023/05/29 04:03:15;;;;;;;71.30;6.67;;;14.60;29.80;;;;;;4882426;29;20156;-83
2023/05/29 04:05:41;;;;;;;68.40;6.13;;;14.50;34.90;;;;;;4880411;29;20431;-83
2023/05/29 04:08:08;;;;;;;72.83;5.53;;;14.50;32.90;;;;;;4881303;29;20210;-83
2023/05/29 04:10:34;;;;;;;67.43;7.37;;;14.50;36.40;;;;;;4881248;29;20192;-83
2023/05/29 04:13:03;;;;;;;73.47;6.37;;;14.50;39.70;;;;;;4881257;29;20435;-83
2023/05/29 04:15:30;;;;;;;76.20;6.70;;;14.50;36.80;;;;;;4881489;29;20432;-83
2023/05/29 04:17:55;;;;;;;73.17;6.30;;;14.60;34.40;;;;;;4881163;29;20435;-83
2023/05/29 04:20:21;;;;;;;74.20;5.60;;;14.70;31.90;;;;;;4881543;29;20409;-83
2023/05/29 04:22:47;;;;;;;73.30;6.00;;;14.80;29.70;;;;;;4880750;29;20179;-83
2023/05/29 04:25:12;;;;;;;71.57;5.73;;;14.70;28.80;;;;;;4879633;29;20180;-82
2023/05/29 04:27:38;;;;;;;68.33;6.20;;;14.60;35.60;;;;;;4880924;29;20197;-83
2023/05/29 04:30:06;;;;;;;72.03;6.13;;;14.60;36.40;;;;;;4880842;29;20244;-83
2023/05/29 04:32:32;;;;;;;70.00;6.30;;;14.50;39.50;;;;;;4880633;29;20169;-82
2023/05/29 04:35:02;;;;;;;70.77;5.83;;;14.60;39.10;;;;;;4880624;29;20843;-82
2023/05/29 04:37:37;;;;;;;68.20;5.13;;;14.70;35.10;;;;;;4880235;29;20437;-83
2023/05/29 04:40:05;;;;;;;68.73;5.80;;;14.80;32.50;;;;;;4878761;29;20551;-82
2023/05/29 04:42:33;;;;;;;72.20;5.47;;;14.80;34.30;;;;;;4880122;29;20419;-83
2023/05/29 04:45:00;;;;;;;71.20;6.03;;;14.90;35.40;;;;;;4880285;29;20429;-83
2023/05/29 04:47:26;;;;;;;67.87;4.80;;;15.20;28.60;;;;;;4880526;29;20446;-83
2023/05/29 04:49:52;;;;;;;71.37;5.87;;;15.30;27.20;;;;;;4878815;29;20464;-83
2023/05/29 04:52:21;;;;;;;70.90;5.30;;;15.40;24.80;;;;;;4880475;29;20413;-83
2023/05/29 04:54:47;;;;;;;70.10;5.20;;;15.50;21.20;;;;;;4880558;29;20642;-83
2023/05/29 04:57:12;;;;;;;69.90;6.03;;;15.70;20.30;;;;;;4880352;29;20613;-82
2023/05/29 04:59:38;;;;;;;71.80;6.00;;;15.80;10.40;;;;;;4880344;29;20229;-83
2023/05/29 05:02:04;;;;;;;70.37;5.90;;;15.60;10.40;;;;;;4880421;29;20175;-82
2023/05/29 05:04:30;;;;;;;67.30;5.93;;;15.50;13.40;;;;;;4880681;29;20174;-82
2023/05/29 05:06:55;;;;;;;73.03;6.50;;;15.40;18.10;;;;;;4881230;29;20438;-82
2023/05/29 05:09:21;;;;;;;71.30;5.70;;;15.50;13.10;;;;;;4883793;29;20202;-83
2023/05/29 05:11:46;;;;;;;73.03;6.23;;;15.50;11.90;;;;;;4884189;29;20174;-82
2023/05/29 05:14:12;;;;;;;73.53;6.23;;;15.50;11.70;;;;;;4883952;29;20253;-83
2023/05/29 05:16:38;;;;;;;73.30;5.97;;;15.30;13.90;;;;;;4883920;29;20745;-82
2023/05/29 05:19:03;;;;;;;71.10;5.13;;;15.30;14.70;;;;;;4882869;29;20181;-82
2023/05/29 05:21:32;;;;;;;68.73;5.33;;;15.20;15.80;;;;;;4882742;29;20181;-82
2023/05/29 05:23:59;;;;;;;73.13;6.60;;;15.10;17.90;;;;;;4883978;29;20179;-82
2023/05/29 05:26:28;;;;;;;74.13;5.53;;;15.10;19.80;;;;;;4883997;29;20436;-83
2023/05/29 05:28:53;;;;;;;77.60;5.23;;;15.20;20.20;;;;;;4882688;29;20494;-82
2023/05/29 05:31:19;;;;;;;71.53;5.20;;;15.30;18.70;;;;;;4884651;29;20447;-82
2023/05/29 05:33:45;;;;;;;71.83;5.33;;;15.20;17.20;;;;;;4883856;29;20488;-82
2023/05/29 05:36:11;;;;;;;72.97;5.00;;;15.10;18.80;;;;;;4882656;29;20780;-82
2023/05/29 05:38:37;;;;;;;73.57;5.37;;;15.10;19.70;;;;;;4883685;29;20499;-82
2023/05/29 05:41:02;;;;;;;68.90;4.97;;;15.10;17.80;;;;;;4883377;29;20174;-82
2023/05/29 05:43:29;;;;;;;71.87;6.33;;;15.10;19.70;;;;;;4883806;29;20183;-82
2023/05/29 05:45:54;;;;;;;70.37;5.30;;;15.10;17.90;;;;;;4882721;29;20745;-82
2023/05/29 05:48:20;;;;;;;71.80;5.03;;;15.10;18.10;;;;;;4881800;29;20488;-83
2023/05/29 05:50:46;;;;;;;72.73;5.20;;;15.10;17.30;;;;;;4882259;29;20826;-83
2023/05/29 05:53:11;;;;;;;72.50;5.10;;;15.10;17.70;;;;;;4883416;29;20658;-82
2023/05/29 05:55:37;;;;;;;69.43;4.93;;;15.00;20.00;;;;;;4883441;29;20196;-82
2023/05/29 05:58:02;;;;;;;78.07;6.30;;;15.00;20.10;;;;;;4883298;29;20199;-83
2023/05/29 06:00:29;;;;;;;68.70;4.90;;;15.00;18.30;;;;;;4882393;29;20188;-82
2023/05/29 06:03:03;;;;;;;72.27;5.53;;;15.00;19.90;;;;;;4882294;29;20175;-82
2023/05/29 06:05:32;;;;;;;75.10;5.00;;;15.00;20.20;;;;;;4883593;29;20429;-83
2023/05/29 06:07:57;;;;;;;69.83;5.63;;;15.00;21.50;;;;;;4883423;29;20429;-83
2023/05/29 06:10:23;;;;;;;75.07;5.80;;;15.10;21.20;;;;;;4883104;29;20463;-83
2023/05/29 06:12:48;;;;;;;68.43;4.73;;;15.10;17.50;;;;;;4883103;29;20169;-82
2023/05/29 06:15:14;;;;;;;80.80;6.87;;;15.20;17.70;;;;;;4883100;29;20258;-82
2023/05/29 06:17:40;;;;;;;67.77;4.70;;;15.20;14.40;;;;;;4882345;29;20230;-82
2023/05/29 06:20:13;;;;;;;71.67;5.30;;;15.20;16.00;;;;;;4882423;29;20174;-83
2023/05/29 06:22:39;;;;;;;69.93;5.00;;;15.20;16.90;;;;;;4883563;29;20162;-83
2023/05/29 06:25:06;;;;;;;72.00;5.30;;;15.30;15.00;;;;;;4883770;29;20408;-83
2023/05/29 06:27:31;;;;;;;69.60;5.10;;;15.40;12.90;;;;;;4882048;29;20449;-83
2023/05/29 06:29:57;;;;;;;77.70;6.00;;;15.40;12.60;;;;;;4883266;29;20453;-82
2023/05/29 06:32:28;;;;;;;71.77;5.30;;;15.50;12.20;;;;;;4882640;29;20173;-82
2023/05/29 06:34:53;;;;;;;73.23;5.20;;;15.50;9.60;;;;;;4882711;29;20581;-83
2023/05/29 06:37:19;;;;;;;69.53;5.80;;;15.60;11.20;;;;;;4882613;29;20438;-83
2023/05/29 06:39:56;;;;;;;72.93;5.80;;;15.60;10.20;;;;;;4882547;29;20227;-83
2023/05/29 06:42:22;;;;;;;71.40;5.90;;;15.60;11.40;;;;;;4881380;29;20189;-83
2023/05/29 06:44:47;;;;;;;76.53;5.53;;;15.40;11.60;;;;;;4882155;29;20441;-82
2023/05/29 06:47:13;;;;;;;78.10;6.10;;;15.40;13.50;;;;;;4882061;29;20205;-82
2023/05/29 06:49:39;;;;;;;76.33;6.10;;;15.40;11.90;;;;;;4881849;29;20196;-82
2023/05/29 06:52:04;;;;;;;88.50;7.60;;;15.50;11.90;;;;;;4882533;29;20251;-82
2023/05/29 06:54:30;;;;;;;73.40;5.60;;;15.50;12.00;;;;;;4882696;29;20175;-82
2023/05/29 06:56:56;;;;;;;74.50;6.17;;;15.60;14.20;;;;;;4882341;29;20521;-82
2023/05/29 06:59:22;;;;;;;77.07;5.87;;;15.60;14.40;;;;;;4881193;29;20268;-82
2023/05/29 07:01:48;;;;;;;77.17;6.00;;;15.70;10.30;;;;;;4882892;29;20435;-82
2023/05/29 07:04:13;;;;;;;71.97;5.80;;;15.80;7.90;;;;;;4881953;29;20515;-83
2023/05/29 07:06:39;;;;;;;72.83;6.27;;;15.80;6.20;;;;;;4882623;29;20198;-82
2023/05/29 07:09:05;;;;;;;72.90;5.67;;;15.80;3.50;;;;;;4882268;29;20196;-82
2023/05/29 07:11:33;;;;;;;69.07;5.77;;;15.90;3.50;;;;;;4882549;29;20169;-82
2023/05/29 07:13:58;;;;;;;74.77;7.00;;;15.80;3.90;;;;;;4883053;29;20645;-82
2023/05/29 07:16:25;;;;;;;74.60;6.40;;;15.80;1.40;;;;;;4882263;29;20424;-83
2023/05/29 07:18:53;;;;;;;74.10;7.17;;;15.90;4.50;;;;;;4882031;29;20174;-82
2023/05/29 07:21:20;;;;;;;74.80;7.33;;;15.80;5.90;;;;;;4882828;29;20410;-83
2023/05/29 07:23:45;;;;;;;72.80;6.80;;;15.90;2.20;;;;;;4882101;29;20457;-83
2023/05/29 07:26:11;;;;;;;72.97;6.30;;;15.90;2.20;;;;;;4883237;29;20439;-83
2023/05/29 07:28:37;;;;;;;75.47;6.53;;;16.00;4.20;;;;;;4883502;29;20746;-83
2023/05/29 07:31:02;;;;;;;71.13;6.07;;;16.00;1.00;;;;;;4882761;29;20259;-83
2023/05/29 07:33:28;;;;;;;79.63;7.10;;;16.20;1.00;;;;;;4883704;29;20191;-84
2023/05/29 07:35:54;;;;;;;74.50;7.90;;;16.20;1.00;;;;;;4883269;29;20632;-83
2023/05/29 07:38:21;;;;;;;76.57;7.03;;;16.20;1.00;;;;;;4884211;29;20170;-83
2023/05/29 07:40:46;;;;;;;76.10;6.80;;;16.30;1.00;;;;;;4883304;29;20428;-83
2023/05/29 07:43:12;;;;;;;71.73;7.80;;;16.40;1.00;;;;;;4883141;29;20409;-83
2023/05/29 07:45:38;;;;;;;75.17;9.30;;;16.50;1.00;;;;;;4883261;29;20191;-83
2023/05/29 07:48:04;;;;;;;76.90;9.57;;;16.60;1.00;;;;;;4885791;29;20472;-83
2023/05/29 07:50:30;;;;;;;77.43;8.57;;;16.60;1.00;;;;;;4885304;29;20285;-83
2023/05/29 07:52:56;;;;;;;73.97;8.20;;;16.60;1.00;;;;;;4884048;29;20497;-83
2023/05/29 07:55:22;;;;;;;71.40;8.20;;;16.60;1.00;;;;;;4884244;29;20654;-83
2023/05/29 07:57:48;;;;;;;75.67;9.03;;;16.60;1.00;;;;;;4884675;29;20431;-83
2023/05/29 08:00:15;;;;;;;74.37;8.07;;;16.70;1.00;;;;;;4884617;29;20265;-83
2023/05/29 08:02:42;;;;;;;72.90;8.73;;;16.70;1.00;;;;;;4884170;29;20408;-84
2023/05/29 08:05:08;;;;;;;77.50;9.07;;;16.60;1.00;;;;;;4884779;29;20382;-83
2023/05/29 08:07:34;;;;;;;71.13;8.00;;;16.60;1.00;;;;;;4883682;29;20454;-83
2023/05/29 08:10:00;;;;;;;76.57;9.53;;;16.70;1.00;;;;;;4884014;29;20447;-83
2023/05/29 08:12:26;;;;;;;69.33;8.40;;;16.60;1.00;;;;;;4885121;29;20422;-83
2023/05/29 08:14:55;;;;;;;76.73;8.80;;;16.70;1.00;;;;;;4883976;29;20171;-84
2023/05/29 08:17:20;;;;;;;71.60;8.63;;;16.80;1.00;;;;;;4884167;29;20186;-83
2023/05/29 08:19:46;;;;;;;75.03;9.40;;;16.80;1.00;;;;;;4883265;29;20415;-84
2023/05/29 08:22:14;;;;;;;72.30;8.40;;;16.80;1.00;;;;;;4884307;29;20171;-84
2023/05/29 08:24:39;;;;;;;76.37;9.50;;;16.90;1.00;;;;;;4884749;29;20178;-84
2023/05/29 08:27:05;;;;;;;70.70;7.70;;;16.90;1.00;;;;;;4883705;29;20871;-84
2023/05/29 08:29:30;;;;;;;74.67;8.60;;;16.90;1.00;;;;;;4883251;29;20690;-84
2023/05/29 08:31:56;;;;;;;76.80;8.23;;;16.90;1.00;;;;;;4883799;29;20183;-84
2023/05/29 08:34:23;;;;;;;75.57;8.53;;;17.00;1.00;;;;;;4884525;29;20172;-83
2023/05/29 08:36:51;;;;;;;72.43;9.30;;;17.10;1.00;;;;;;4882885;29;20267;-83
2023/05/29 08:39:17;;;;;;;72.10;8.67;;;17.20;1.00;;;;;;4882068;29;20411;-84
2023/05/29 08:41:48;;;;;;;74.67;8.73;;;17.20;1.00;;;;;;4882319;29;20422;-83
2023/05/29 08:44:15;;;;;;;76.27;11.80;;;17.10;1.00;;;;;;4883471;29;20186;-83
2023/05/29 08:46:40;;;;;;;74.37;8.47;;;17.20;1.00;;;;;;4883686;29;20558;-83
2023/05/29 08:49:09;;;;;;;71.67;10.17;;;17.30;1.00;;;;;;4883668;29;20888;-84
2023/05/29 08:51:38;;;;;;;77.53;9.17;;;17.40;1.00;;;;;;4883798;29;20276;-83
2023/05/29 08:54:04;;;;;;;74.70;9.33;;;17.30;1.00;;;;;;4883102;29;20937;-83
2023/05/29 08:56:30;;;;;;;71.40;9.80;;;17.50;1.00;;;;;;4883306;29;20455;-83
2023/05/29 08:58:57;;;;;;;72.40;10.10;;;17.50;1.00;;;;;;4882733;29;20411;-83
2023/05/29 09:01:25;;;;;;;77.63;9.17;;;17.70;1.00;;;;;;4882444;29;20411;-84
2023/05/29 09:04:11;;;;;;;73.80;9.27;;;17.80;1.00;;;;;;4882121;29;20410;-83
2023/05/29 09:06:36;;;;;;;80.17;9.17;;;17.80;1.00;;;;;;4882870;29;20435;-84
2023/05/29 09:09:05;;;;;;;72.93;9.37;;;17.80;1.00;;;;;;4882501;29;20510;-82
2023/05/29 09:11:31;;;;;;;72.17;8.20;;;17.80;1.00;;;;;;4880950;29;20163;-84
2023/05/29 09:13:59;;;;;;;73.27;9.17;;;17.90;1.00;;;;;;4879971;29;20426;-83
2023/05/29 09:16:25;;;;;;;74.47;9.30;;;18.10;1.00;;;;;;4880574;29;20436;-84
2023/05/29 09:18:50;;;;;;;77.77;8.70;;;18.10;1.00;;;;;;4880777;29;20403;-84
2023/05/29 09:21:27;;;;;;;76.77;8.70;;;18.10;1.00;;;;;;4880960;29;20249;-84
2023/05/29 09:23:54;;;;;;;73.40;7.67;;;18.20;1.00;;;;;;4883094;29;20262;-84
2023/05/29 09:26:23;;;;;;;75.77;8.67;;;18.40;1.00;;;;;;4884548;29;20487;-84
2023/05/29 09:28:49;;;;;;;72.70;6.77;;;18.60;1.00;;;;;;4882476;29;20387;-84
2023/05/29 09:31:17;;;;;;;75.77;9.90;;;18.70;1.00;;;;;;4879802;29;20415;-84
2023/05/29 09:33:49;;;;;;;75.90;7.90;;;18.70;1.00;;;;;;4880873;29;20411;-84
2023/05/29 09:36:25;;;;;;;76.87;8.50;;;18.80;1.00;;;;;;4880297;29;20434;-84
2023/05/29 09:38:51;;;;;;;76.87;8.57;;;18.90;1.00;;;;;;4881146;29;20395;-84
2023/05/29 09:41:23;;;;;;;78.47;7.53;;;19.20;1.00;;;;;;4881166;29;20399;-84
2023/05/29 09:43:55;;;;;;;79.27;8.73;;;19.40;1.00;;;;;;4943472;23;20205;-81
2023/05/29 09:46:21;;;;;;;72.60;8.03;;;19.40;1.00;;;;;;4881415;29;20443;-81
2023/05/29 09:48:48;;;;;;;75.47;7.47;;;19.50;1.00;;;;;;4882987;29;20409;-81
2023/05/29 09:51:21;;;;;;;71.93;6.93;;;19.60;1.00;;;;;;4882575;29;20165;-81
2023/05/29 09:53:51;;;;;;;80.03;8.00;;;19.70;1.00;;;;;;4883313;29;20813;-81
2023/05/29 09:56:17;;;;;;;71.27;7.90;;;19.70;1.00;;;;;;4886133;29;20441;-81
2023/05/29 09:58:47;;;;;;;81.77;10.40;;;19.80;1.00;;;;;;4884821;29;20419;-80
2023/05/29 10:01:15;;;;;;;76.80;9.60;;;19.90;1.00;;;;;;4884998;29;20423;-81
2023/05/29 10:03:42;;;;;;;73.40;9.70;;;20.10;1.00;;;;;;4887080;29;20418;-81
2023/05/29 10:06:11;;;;;;;73.30;9.10;;;20.20;1.00;;;;;;4885282;29;20439;-81
2023/05/29 10:08:50;;;;;;;77.03;9.50;;;20.30;1.00;;;;;;4884981;29;20430;-80
2023/05/29 10:11:24;;;;;;;72.93;9.70;;;20.30;1.00;;;;;;4884834;29;20445;-81
2023/05/29 10:13:52;;;;;;;73.73;9.17;;;20.20;1.00;;;;;;4886724;29;20391;-81
2023/05/29 10:16:22;;;;;;;75.80;10.63;;;20.10;1.00;;;;;;4885604;29;20435;-81
2023/05/29 10:18:57;;;;;;;72.47;9.23;;;20.40;1.00;;;;;;4885993;29;20405;-80
2023/05/29 10:21:26;;;;;;;73.30;8.80;;;20.40;1.00;;;;;;4884016;29;20414;-81
2023/05/29 10:23:54;;;;;;;79.57;8.50;;;20.60;1.00;;;;;;4884831;29;20462;-80
2023/05/29 10:26:28;;;;;;;76.80;9.07;;;20.60;1.00;;;;;;4884229;29;20216;-80
2023/05/29 10:29:31;;;;;;;77.53;9.30;;;20.90;1.00;;;;;;4884143;29;20522;-80
2023/05/29 10:32:40;;;;;;;78.77;9.20;;;21.00;1.00;;;;;;4885145;29;20391;-80
2023/05/29 10:35:18;;;;;;;86.73;9.00;;;20.90;1.00;;;;;;4878595;29;20567;-80
2023/05/29 10:37:59;;;;;;;84.60;9.00;;;21.00;1.00;;;;;;4884640;29;20933;-81
2023/05/29 10:40:27;;;;;;;78.63;8.83;;;21.30;1.00;;;;;;4883688;29;20412;-80
2023/05/29 10:42:57;;;;;;;79.00;8.50;;;21.30;1.00;;;;;;4883363;29;20422;-80
2023/05/29 10:45:32;;;;;;;76.47;8.23;;;21.50;1.00;;;;;;4884940;29;20433;-80
2023/05/29 10:48:06;;;;;;;76.47;7.97;;;21.70;1.00;;;;;;4885117;29;20473;-81
2023/05/29 10:51:02;;;;;;;75.10;8.60;;;21.50;1.00;;;;;;4884768;29;20877;-81
2023/05/29 10:53:31;;;;;;;77.90;8.20;;;21.20;1.00;;;;;;4867839;29;20419;-81
2023/05/29 10:55:59;;;;;;;75.37;8.60;;;21.20;1.00;;;;;;4883518;29;20416;-81
2023/05/29 10:58:26;;;;;;;72.13;8.13;;;21.30;1.00;;;;;;4884819;29;20414;-81
2023/05/29 11:00:54;;;;;;;79.15;9.48;;;21.40;1.00;;;;;;4883765;29;20501;-81
2023/05/29 11:03:25;;;;;;;76.03;10.13;;;21.50;1.00;;;;;;4884846;29;20200;-81
2023/05/29 11:06:16;;;;;;;73.67;9.50;;;21.70;1.00;;;;;;4883065;29;20423;-81
2023/05/29 11:08:46;;;;;;;79.73;9.77;;;21.50;1.00;;;;;;4884664;29;20388;-81
2023/05/29 11:11:28;;;;;;;76.33;8.70;;;21.50;1.00;;;;;;4884116;29;20446;-81
2023/05/29 11:13:55;;;;;;;77.10;8.17;;;21.40;1.00;;;;;;4884707;29;20388;-81
2023/05/29 11:16:29;;;;;;;77.53;9.50;;;21.70;1.00;;;;;;4884107;29;20426;-81
2023/05/29 11:18:59;;;;;;;78.20;7.53;;;21.90;1.00;;;;;;4883055;29;20438;-81
2023/05/29 11:21:31;;;;;;;73.67;7.17;;;22.00;1.00;;;;;;4884476;29;20411;-81
2023/05/29 11:24:02;;;;;;;82.77;8.10;;;21.70;1.00;;;;;;4883238;29;20511;-83
2023/05/29 11:26:29;;;;;;;83.50;7.37;;;21.80;1.00;;;;;;4883089;29;20455;-81
2023/05/29 11:29:06;;;;;;;79.90;8.80;;;21.80;1.00;;;;;;4884288;29;20554;-81
2023/05/29 11:31:34;;;;;;;74.87;7.57;;;21.80;1.00;;;;;;4883939;29;20433;-80
2023/05/29 11:34:04;;;;;;;72.70;6.90;;;21.80;1.00;;;;;;4882728;29;20787;-81
2023/05/29 11:36:32;;;;;;;76.50;6.20;;;22.00;1.00;;;;;;4882833;29;20491;-81
2023/05/29 11:39:03;;;;;;;74.03;5.93;;;22.20;1.00;;;;;;4884690;29;20915;-81
2023/05/29 11:41:29;;;;;;;72.20;5.40;;;22.40;1.00;;;;;;4884698;29;20392;-81
2023/05/29 11:43:59;;;;;;;74.93;6.20;;;22.70;1.00;;;;;;4882308;29;20422;-80
2023/05/29 11:46:26;;;;;;;73.00;5.80;;;22.80;1.00;;;;;;4883778;29;20431;-81
2023/05/29 11:48:52;;;;;;;73.20;5.17;;;22.90;1.00;;;;;;4884130;29;20954;-81
2023/05/29 11:51:17;;;;;;;73.30;5.20;;;23.10;1.00;;;;;;4883967;29;20411;-81
2023/05/29 11:53:46;;;;;;;74.20;5.30;;;23.00;1.00;;;;;;4882620;29;20434;-81
2023/05/29 11:56:12;;;;;;;72.37;5.00;;;23.00;1.00;;;;;;4882541;29;20206;-81
2023/05/29 11:58:38;;;;;;;74.43;5.20;;;23.00;1.00;;;;;;4883852;29;20420;-81
2023/05/29 12:01:05;;;;;;;75.77;5.27;;;23.20;1.00;;;;;;4882074;29;20178;-81
2023/05/29 12:03:40;;;;;;;79.37;5.90;;;23.20;1.00;;;;;;4883872;29;20415;-81
2023/05/29 12:06:06;;;;;;;72.10;4.43;;;23.20;1.00;;;;;;4882124;29;20487;-81
2023/05/29 12:08:32;;;;;;;78.17;5.30;;;23.20;1.00;;;;;;4883357;29;20502;-81
2023/05/29 12:10:58;;;;;;;73.10;5.10;;;23.30;1.00;;;;;;4882010;29;20542;-81
2023/05/29 12:13:23;;;;;;;73.90;4.90;;;23.50;1.00;;;;;;4883433;29;20487;-81
2023/05/29 12:15:53;;;;;;;73.27;5.53;;;23.40;1.00;;;;;;4883266;29;20630;-81
2023/05/29 12:18:19;;;;;;;75.60;5.87;;;23.60;1.00;;;;;;4883355;29;20231;-80
2023/05/29 12:20:44;;;;;;;70.93;4.90;;;23.80;1.00;;;;;;4883151;29;20458;-81
2023/05/29 12:23:11;;;;;;;75.20;6.00;;;23.80;1.00;;;;;;4882208;29;20540;-80
2023/05/29 12:25:37;;;;;;;73.87;5.87;;;23.60;1.00;;;;;;4883040;29;20175;-81
2023/05/29 12:28:04;;;;;;;74.50;5.73;;;23.80;1.00;;;;;;4883117;29;20436;-81
2023/05/29 12:30:30;;;;;;;74.87;5.90;;;23.80;1.00;;;;;;4881813;29;20847;-81
2023/05/29 12:32:57;;;;;;;73.97;5.10;;;24.00;1.00;;;;;;4883461;29;20483;-82
2023/05/29 12:35:24;;;;;;;76.00;6.10;;;24.00;1.00;;;;;;4881803;29;20800;-81
2023/05/29 12:37:59;;;;;;;69.80;4.70;;;24.00;1.00;;;;;;4882761;29;20431;-81
2023/05/29 12:40:36;;;;;;;71.97;5.80;;;23.90;1.00;;;;;;4882543;29;20764;-81
2023/05/29 12:43:06;;;;;;;77.97;5.53;;;23.90;1.00;;;;;;4883138;29;20395;-81
2023/05/29 12:45:33;;;;;;;77.50;6.10;;;23.70;1.00;;;;;;4882612;29;20431;-81
2023/05/29 12:48:03;;;;;;;76.43;6.23;;;23.70;1.00;;;;;;4881536;29;20527;-81